Time;durP1;ratioP1;P1;durP2;ratioP2;P2;SDS_P1;SDS_P2;PMS_P1;PMS_P2;Temp;Humidity;BMP_temperature;BMP_pressure;BME280_temperature;BME280_humidity;BME280_pressure;Samples;Min_cycle;Max_cycle;Signal;HPM_P1;HPM_P2
2023/08/15 00:02:00;;;;;;;;;;;23.80;66.50;;;;;;10199500;28;93953;-69
2023/08/15 00:07:04;;;;;;;;;;;23.80;66.50;;;;;;10198809;28;94381;-69
2023/08/15 00:12:08;;;;;;;;;;;23.80;66.50;;;;;;10208902;28;92724;-69
2023/08/15 00:17:10;;;;;;;;;;;23.80;66.50;;;;;;10190538;28;94027;-69
2023/08/15 00:22:11;;;;;;;;;;;23.70;66.50;;;;;;10196342;28;93779;-69
2023/08/15 00:27:13;;;;;;;;;;;23.70;66.50;;;;;;10204037;28;94928;-69
2023/08/15 00:32:15;;;;;;;;;;;23.70;66.60;;;;;;10186643;28;94340;-69
2023/08/15 00:37:17;;;;;;;;;;;23.70;66.60;;;;;;10189629;28;95015;-69
2023/08/15 00:42:19;;;;;;;;;;;23.60;66.50;;;;;;10211129;28;93554;-70
2023/08/15 00:47:20;;;;;;;;;;;23.70;66.60;;;;;;10194520;28;93249;-69
2023/08/15 00:52:23;;;;;;;;;;;23.60;66.60;;;;;;10196602;28;93816;-69
2023/08/15 00:57:25;;;;;;;;;;;23.60;66.60;;;;;;10203958;28;94022;-70
2023/08/15 01:02:27;;;;;;;;;;;23.60;66.60;;;;;;10188232;28;93605;-69
2023/08/15 01:07:29;;;;;;;;;;;23.60;66.60;;;;;;10198253;28;94304;-69
2023/08/15 01:12:33;;;;;;;;;;;23.60;66.60;;;;;;10184010;28;93389;-69
2023/08/15 01:17:36;;;;;;;;;;;23.60;66.60;;;;;;10209110;28;97265;-69
2023/08/15 01:22:42;;;;;;;;;;;23.60;66.60;;;;;;10188461;28;93645;-69
2023/08/15 01:27:44;;;;;;;;;;;23.60;66.60;;;;;;10205074;28;93540;-68
2023/08/15 01:32:51;;;;;;;;;;;23.60;66.70;;;;;;10198916;28;94616;-70
2023/08/15 01:38:01;;;;;;;;;;;23.60;66.60;;;;;;10199181;28;94497;-69
2023/08/15 01:43:02;;;;;;;;;;;23.50;66.60;;;;;;10203929;28;93762;-69
2023/08/15 01:48:04;;;;;;;;;;;23.50;66.60;;;;;;10188828;28;94715;-69
2023/08/15 01:53:07;;;;;;;;;;;23.50;66.50;;;;;;10196404;28;93762;-70
2023/08/15 01:58:09;;;;;;;;;;;23.50;66.70;;;;;;10189142;28;95551;-69
2023/08/15 02:03:11;;;;;;;;;;;23.50;66.60;;;;;;10192599;28;93626;-69
2023/08/15 02:08:13;;;;;;;;;;;23.50;66.60;;;;;;10196691;28;96922;-69
2023/08/15 02:13:15;;;;;;;;;;;23.50;66.70;;;;;;10181916;28;94436;-69
2023/08/15 02:18:17;;;;;;;;;;;23.50;66.70;;;;;;10199653;28;94742;-70
2023/08/15 02:23:18;;;;;;;;;;;23.50;66.60;;;;;;10199555;28;93587;-69
2023/08/15 02:28:20;;;;;;;;;;;23.50;66.70;;;;;;10189825;28;93848;-69
2023/08/15 02:33:22;;;;;;;;;;;23.40;66.60;;;;;;10206926;28;94376;-69
2023/08/15 02:38:23;;;;;;;;;;;23.50;66.70;;;;;;10214655;28;94198;-69
2023/08/15 02:43:26;;;;;;;;;;;23.50;66.70;;;;;;10206400;28;92486;-70
2023/08/15 02:48:27;;;;;;;;;;;23.40;66.70;;;;;;10200510;28;94424;-68
2023/08/15 02:53:29;;;;;;;;;;;23.40;66.80;;;;;;10205163;28;93914;-69
2023/08/15 02:58:31;;;;;;;;;;;23.40;66.60;;;;;;10196030;28;95851;-69
2023/08/15 03:03:33;;;;;;;;;;;23.40;66.70;;;;;;10200339;28;94249;-69
2023/08/15 03:08:34;;;;;;;;;;;23.40;66.70;;;;;;10169655;28;94647;-69
2023/08/15 03:13:37;;;;;;;;;;;23.40;66.70;;;;;;10202706;28;94087;-68
2023/08/15 03:18:39;;;;;;;;;;;23.40;66.70;;;;;;10169417;28;94144;-69
2023/08/15 03:23:41;;;;;;;;;;;23.40;66.60;;;;;;10174253;28;94693;-70
2023/08/15 03:28:43;;;;;;;;;;;23.40;66.60;;;;;;10189477;28;94474;-70
2023/08/15 03:33:45;;;;;;;;;;;23.40;66.60;;;;;;10199389;28;92649;-69
2023/08/15 03:38:47;;;;;;;;;;;23.40;66.50;;;;;;10196992;28;93307;-69
2023/08/15 03:43:48;;;;;;;;;;;23.40;66.60;;;;;;10199729;28;94388;-69
2023/08/15 03:48:50;;;;;;;;;;;23.40;66.50;;;;;;10194212;28;96091;-69
2023/08/15 03:53:52;;;;;;;;;;;23.40;66.50;;;;;;10201893;28;93439;-69
2023/08/15 03:58:53;;;;;;;;;;;23.40;66.40;;;;;;10180938;28;93551;-69
2023/08/15 04:03:56;;;;;;;;;;;23.40;66.40;;;;;;10181332;28;93645;-69
2023/08/15 04:08:58;;;;;;;;;;;23.40;66.40;;;;;;10200086;28;94799;-69
2023/08/15 04:14:00;;;;;;;;;;;23.50;66.40;;;;;;10189340;28;93986;-69
2023/08/15 04:19:02;;;;;;;;;;;23.40;66.30;;;;;;10201797;28;93550;-70
2023/08/15 04:24:03;;;;;;;;;;;23.50;66.30;;;;;;10186426;28;92672;-69
2023/08/15 04:29:06;;;;;;;;;;;23.40;66.40;;;;;;10204378;28;94847;-69
2023/08/15 04:34:09;;;;;;;;;;;23.40;67.20;;;;;;10188149;28;93248;-67
2023/08/15 04:39:10;;;;;;;;;;;23.50;66.30;;;;;;10200947;28;96296;-68
2023/08/15 04:44:12;;;;;;;;;;;23.50;66.30;;;;;;10198646;28;93494;-68
2023/08/15 04:49:14;;;;;;;;;;;23.40;66.20;;;;;;10588935;23;96671;-51
2023/08/15 04:54:16;;;;;;;;;;;23.50;66.30;;;;;;10180274;28;93702;-51
2023/08/15 04:59:18;;;;;;;;;;;23.50;66.20;;;;;;10206151;28;92914;-48
2023/08/15 05:04:20;;;;;;;;;;;23.50;66.20;;;;;;10205409;28;95684;-55
2023/08/15 05:09:22;;;;;;;;;;;23.50;66.20;;;;;;10206690;28;93777;-50
2023/08/15 05:14:23;;;;;;;;;;;23.40;66.20;;;;;;10206210;28;93851;-50
2023/08/15 05:19:25;;;;;;;;;;;23.40;66.10;;;;;;10203569;28;93833;-52
2023/08/15 05:24:27;;;;;;;;;;;23.50;66.10;;;;;;10198697;28;94462;-52
2023/08/15 05:29:28;;;;;;;;;;;23.50;66.10;;;;;;10202177;28;96905;-51
2023/08/15 05:34:30;;;;;;;;;;;23.40;66.10;;;;;;10202480;28;93540;-52
2023/08/15 05:39:32;;;;;;;;;;;23.40;66.20;;;;;;10195416;28;94486;-51
2023/08/15 05:44:34;;;;;;;;;;;23.50;66.30;;;;;;10202989;28;94571;-52
2023/08/15 05:49:35;;;;;;;;;;;23.50;66.30;;;;;;10199316;28;94448;-48
2023/08/15 05:54:37;;;;;;;;;;;23.50;66.30;;;;;;10201095;28;93353;-47
2023/08/15 05:59:39;;;;;;;;;;;23.50;66.30;;;;;;10200642;28;94632;-53
2023/08/15 06:04:41;;;;;;;;;;;23.50;66.40;;;;;;10197459;28;93210;-53
2023/08/15 06:09:42;;;;;;;;;;;23.50;66.30;;;;;;10200894;28;94637;-48
2023/08/15 06:14:44;;;;;;;;;;;23.50;66.30;;;;;;10199631;28;94735;-48
2023/08/15 06:19:46;;;;;;;;;;;23.50;66.40;;;;;;10197839;28;95841;-48
2023/08/15 06:24:48;;;;;;;;;;;23.60;66.40;;;;;;10200069;28;93368;-48
2023/08/15 06:29:49;;;;;;;;;;;23.60;66.50;;;;;;10194374;28;94222;-49
2023/08/15 06:34:51;;;;;;;;;;;23.60;66.50;;;;;;10202172;28;94034;-49
2023/08/15 06:39:53;;;;;;;;;;;23.60;66.50;;;;;;10190508;28;94737;-50
2023/08/15 06:45:04;;;;;;;;;;;23.60;66.50;;;;;;10192404;28;93496;-49
2023/08/15 06:50:06;;;;;;;;;;;23.70;66.50;;;;;;10190385;28;93442;-46
2023/08/15 06:55:09;;;;;;;;;;;23.70;67.00;;;;;;10201339;28;93854;-49
2023/08/15 07:00:12;;;;;;;;;;;23.70;66.90;;;;;;10169750;28;93526;-49
2023/08/15 07:05:14;;;;;;;;;;;23.70;66.70;;;;;;10201950;28;93542;-46
2023/08/15 07:10:16;;;;;;;;;;;23.70;67.00;;;;;;10198720;28;95856;-47
2023/08/15 07:15:18;;;;;;;;;;;23.80;68.20;;;;;;10200955;28;94441;-49
2023/08/15 07:20:20;;;;;;;;;;;23.80;67.90;;;;;;10201321;28;94529;-48
2023/08/15 07:25:22;;;;;;;;;;;23.80;68.30;;;;;;10174090;28;93465;-48
2023/08/15 07:30:24;;;;;;;;;;;23.80;68.20;;;;;;10207580;28;93376;-47
2023/08/15 07:35:26;;;;;;;;;;;23.80;67.50;;;;;;10197905;28;93261;-51
2023/08/15 07:40:27;;;;;;;;;;;23.80;67.30;;;;;;10194607;28;93731;-51
2023/08/15 07:45:29;;;;;;;;;;;23.80;67.10;;;;;;10197632;28;93674;-46
2023/08/15 07:50:31;;;;;;;;;;;23.70;66.90;;;;;;10197663;28;93065;-53
2023/08/15 07:55:33;;;;;;;;;;;23.70;67.00;;;;;;10199395;28;94146;-52
2023/08/15 08:00:36;;;;;;;;;;;23.70;67.00;;;;;;10200312;28;96041;-51
2023/08/15 08:05:39;;;;;;;;;;;23.70;67.00;;;;;;10200854;28;94752;-47
2023/08/15 08:10:41;;;;;;;;;;;23.70;67.10;;;;;;10183468;28;93702;-52
2023/08/15 08:15:43;;;;;;;;;;;23.70;66.90;;;;;;10198680;28;94797;-52
2023/08/15 08:20:45;;;;;;;;;;;23.70;67.00;;;;;;10200304;28;93785;-46
2023/08/15 08:25:47;;;;;;;;;;;23.60;66.80;;;;;;10182734;28;94571;-47
2023/08/15 08:30:48;;;;;;;;;;;23.60;66.90;;;;;;10203158;28;94570;-51
2023/08/15 08:35:51;;;;;;;;;;;23.60;66.90;;;;;;10191687;28;95162;-51
2023/08/15 08:40:56;;;;;;;;;;;23.60;67.00;;;;;;10189851;28;94439;-46
2023/08/15 08:45:59;;;;;;;;;;;23.60;66.90;;;;;;10203298;28;94476;-48
2023/08/15 08:51:01;;;;;;;;;;;23.60;66.80;;;;;;10204285;28;98649;-47
2023/08/15 08:56:04;;;;;;;;;;;23.60;66.90;;;;;;10204552;28;93405;-48
2023/08/15 09:01:06;;;;;;;;;;;23.50;66.90;;;;;;10195095;28;94536;-46
2023/08/15 09:06:08;;;;;;;;;;;23.60;66.90;;;;;;10205771;28;94478;-48
2023/08/15 09:11:10;;;;;;;;;;;23.60;67.00;;;;;;10189339;28;95070;-52
2023/08/15 09:16:12;;;;;;;;;;;23.60;66.90;;;;;;10206514;28;94509;-50
2023/08/15 09:21:14;;;;;;;;;;;23.60;66.90;;;;;;10205914;28;94431;-48
2023/08/15 09:26:16;;;;;;;;;;;23.60;67.00;;;;;;10206099;28;92774;-49
2023/08/15 09:31:18;;;;;;;;;;;23.50;66.90;;;;;;10205457;28;93458;-49
2023/08/15 09:36:22;;;;;;;;;;;23.50;66.90;;;;;;10187645;28;93556;-48
2023/08/15 09:41:25;;;;;;;;;;;23.50;66.90;;;;;;10201529;28;96817;-49
2023/08/15 09:46:28;;;;;;;;;;;23.50;66.90;;;;;;10185945;28;94642;-48
2023/08/15 09:51:32;;;;;;;;;;;23.50;66.90;;;;;;10203019;28;93576;-50
2023/08/15 09:56:33;;;;;;;;;;;23.50;66.90;;;;;;10185041;28;94417;-48
2023/08/15 10:01:37;;;;;;;;;;;23.60;67.00;;;;;;10204273;28;93801;-50
2023/08/15 10:06:42;;;;;;;;;;;23.50;66.90;;;;;;10203572;28;94464;-50
2023/08/15 10:11:47;;;;;;;;;;;23.60;67.00;;;;;;10186783;28;93544;-48
2023/08/15 10:16:49;;;;;;;;;;;23.60;66.90;;;;;;10204458;28;92631;-46
2023/08/15 10:21:52;;;;;;;;;;;23.60;66.90;;;;;;10204728;28;94414;-48
2023/08/15 10:26:56;;;;;;;;;;;23.60;66.80;;;;;;10204130;28;94625;-46
2023/08/15 10:31:59;;;;;;;;;;;23.60;66.80;;;;;;10200102;28;97274;-49
2023/08/15 10:37:33;;;;;;;;;;;23.70;66.70;;;;;;10202830;28;95186;-49
2023/08/15 10:42:54;;;;;;;;;;;23.60;66.60;;;;;;10170715;28;94531;-48
2023/08/15 10:47:55;;;;;;;;;;;23.60;66.60;;;;;;10202725;28;94636;-48
2023/08/15 10:52:58;;;;;;;;;;;23.60;66.60;;;;;;10183536;28;93570;-48
2023/08/15 10:58:04;;;;;;;;;;;23.60;66.60;;;;;;10183932;28;113782;-48
2023/08/15 11:03:06;;;;;;;;;;;23.60;66.60;;;;;;10202324;28;95750;-51
2023/08/15 11:08:10;;;;;;;;;;;23.60;66.80;;;;;;10203707;28;93903;-46
2023/08/15 11:13:12;;;;;;;;;;;23.60;66.90;;;;;;10202570;28;94426;-51
2023/08/15 11:18:21;;;;;;;;;;;23.60;66.90;;;;;;10202322;28;94519;-66
2023/08/15 11:23:23;;;;;;;;;;;23.60;67.00;;;;;;10182611;28;95807;-49
2023/08/15 11:28:26;;;;;;;;;;;23.60;67.00;;;;;;10184832;28;93455;-51
2023/08/15 11:33:31;;;;;;;;;;;23.60;67.00;;;;;;10201249;28;94290;-47
2023/08/15 11:38:33;;;;;;;;;;;23.60;67.20;;;;;;10173238;28;94492;-47
2023/08/15 11:43:35;;;;;;;;;;;23.70;67.20;;;;;;10201161;28;94782;-50
2023/08/15 11:48:37;;;;;;;;;;;23.70;67.10;;;;;;10200213;28;93465;-47
2023/08/15 11:53:47;;;;;;;;;;;23.70;67.10;;;;;;10201562;28;94203;-50
2023/08/15 11:58:49;;;;;;;;;;;23.70;67.10;;;;;;10201062;28;93637;-50
2023/08/15 12:03:52;;;;;;;;;;;23.70;67.10;;;;;;10176839;28;94181;-50
2023/08/15 12:08:54;;;;;;;;;;;23.70;67.10;;;;;;10207376;28;95155;-47
2023/08/15 12:13:55;;;;;;;;;;;23.70;67.20;;;;;;10193993;28;95980;-47
2023/08/15 12:18:57;;;;;;;;;;;23.70;67.20;;;;;;10190392;28;94501;-51
2023/08/15 12:23:59;;;;;;;;;;;23.70;67.30;;;;;;10207421;28;94338;-49
2023/08/15 12:29:01;;;;;;;;;;;23.70;67.40;;;;;;10207217;28;94397;-48
2023/08/15 12:34:03;;;;;;;;;;;23.70;67.40;;;;;;10207568;28;94488;-45
2023/08/15 12:39:06;;;;;;;;;;;23.70;67.40;;;;;;10207598;28;94382;-50
2023/08/15 12:44:09;;;;;;;;;;;23.70;67.40;;;;;;10206680;28;93513;-49
2023/08/15 12:49:11;;;;;;;;;;;23.70;67.50;;;;;;10189599;28;92741;-49
2023/08/15 12:54:12;;;;;;;;;;;23.70;67.50;;;;;;10206073;28;94571;-47
2023/08/15 12:59:15;;;;;;;;;;;23.70;67.60;;;;;;10204809;28;94882;-49
2023/08/15 13:04:17;;;;;;;;;;;23.70;67.60;;;;;;10203449;28;96874;-50
2023/08/15 13:09:19;;;;;;;;;;;23.70;67.70;;;;;;10205837;28;93528;-50
2023/08/15 13:14:21;;;;;;;;;;;23.70;67.90;;;;;;10187092;28;95266;-50
2023/08/15 13:19:34;;;;;;;;;;;23.80;68.80;;;;;;10205004;28;93321;-50
2023/08/15 13:24:36;;;;;;;;;;;23.80;67.90;;;;;;10205159;28;94456;-50
2023/08/15 13:29:38;;;;;;;;;;;23.80;67.90;;;;;;10187121;28;93350;-49
2023/08/15 13:34:41;;;;;;;;;;;23.80;67.90;;;;;;10204063;28;94702;-52
2023/08/15 13:39:42;;;;;;;;;;;23.80;67.90;;;;;;10206824;28;93752;-49
2023/08/15 13:44:45;;;;;;;;;;;23.80;67.80;;;;;;10205121;28;93395;-47
2023/08/15 13:49:46;;;;;;;;;;;23.90;67.60;;;;;;10204499;28;93729;-46
2023/08/15 13:54:48;;;;;;;;;;;23.90;67.50;;;;;;10184135;28;95915;-51
2023/08/15 13:59:50;;;;;;;;;;;23.90;67.50;;;;;;10201732;28;94506;-45
2023/08/15 14:04:54;;;;;;;;;;;23.90;67.50;;;;;;10185571;28;94577;-48
2023/08/15 14:09:55;;;;;;;;;;;23.90;67.40;;;;;;10202780;28;93450;-48
2023/08/15 14:14:57;;;;;;;;;;;23.90;67.40;;;;;;10203698;28;94520;-50
2023/08/15 14:19:59;;;;;;;;;;;23.90;67.40;;;;;;10194825;28;94599;-49
2023/08/15 14:25:01;;;;;;;;;;;23.90;67.30;;;;;;10201736;28;94314;-48
2023/08/15 14:30:03;;;;;;;;;;;23.90;67.30;;;;;;10187500;28;92009;-50
2023/08/15 14:35:04;;;;;;;;;;;23.90;67.20;;;;;;10204117;28;93196;-49
2023/08/15 14:40:07;;;;;;;;;;;23.90;67.20;;;;;;10203451;28;95450;-51
2023/08/15 14:45:09;;;;;;;;;;;23.90;67.20;;;;;;10200481;28;97313;-54
2023/08/15 14:50:11;;;;;;;;;;;23.90;67.10;;;;;;10182775;28;93492;-51
2023/08/15 14:55:13;;;;;;;;;;;23.90;67.10;;;;;;10184555;28;94498;-50
2023/08/15 15:00:15;;;;;;;;;;;23.90;67.00;;;;;;10201602;28;94397;-55
2023/08/15 15:05:17;;;;;;;;;;;23.90;66.70;;;;;;10162636;28;94651;-54
2023/08/15 15:10:19;;;;;;;;;;;24.00;66.80;;;;;;10203282;28;94298;-53
2023/08/15 15:15:21;;;;;;;;;;;24.00;66.90;;;;;;10164882;28;93224;-53
2023/08/15 15:20:41;;;;;;;;;;;24.00;66.80;;;;;;10211274;28;93983;-55
2023/08/15 15:25:44;;;;;;;;;;;24.10;67.00;;;;;;10200349;28;92574;-56
2023/08/15 15:30:46;;;;;;;;;;;24.10;68.00;;;;;;10196634;28;94453;-53
2023/08/15 15:35:48;;;;;;;;;;;24.20;68.60;;;;;;10197731;28;96953;-52
2023/08/15 15:40:50;;;;;;;;;;;24.40;69.10;;;;;;10200662;28;95531;-59
2023/08/15 15:45:52;;;;;;;;;;;24.40;69.20;;;;;;10178571;28;94409;-58
2023/08/15 15:50:54;;;;;;;;;;;24.50;69.40;;;;;;10201128;28;93326;-56
2023/08/15 15:55:55;;;;;;;;;;;24.50;68.80;;;;;;10192693;28;94780;-54
2023/08/15 16:00:58;;;;;;;;;;;24.60;68.70;;;;;;10206795;28;93245;-56
2023/08/15 16:06:00;;;;;;;;;;;24.70;68.00;;;;;;10206026;28;93344;-55
2023/08/15 16:11:02;;;;;;;;;;;24.70;67.50;;;;;;10187055;28;94188;-55
2023/08/15 16:16:04;;;;;;;;;;;24.70;65.20;;;;;;10177442;28;93724;-56
2023/08/15 16:21:06;;;;;;;;;;;24.60;63.20;;;;;;10206100;28;93642;-55
2023/08/15 16:26:08;;;;;;;;;;;24.60;61.40;;;;;;10197818;28;95862;-56
2023/08/15 16:31:10;;;;;;;;;;;24.40;60.90;;;;;;10200630;28;97604;-55
2023/08/15 16:36:12;;;;;;;;;;;24.40;60.10;;;;;;10186946;28;94713;-56
2023/08/15 16:41:14;;;;;;;;;;;24.30;59.80;;;;;;10198104;28;95082;-56
2023/08/15 16:46:15;;;;;;;;;;;24.30;60.20;;;;;;10191485;28;94783;-56
2023/08/15 16:51:17;;;;;;;;;;;24.20;58.90;;;;;;10203152;28;94953;-56
2023/08/15 16:56:19;;;;;;;;;;;24.20;58.90;;;;;;10206908;28;95902;-61
2023/08/15 17:01:21;;;;;;;;;;;24.20;58.10;;;;;;10209513;28;94010;-56
2023/08/15 17:06:23;;;;;;;;;;;24.20;58.30;;;;;;10210339;28;94524;-55
2023/08/15 17:11:25;;;;;;;;;;;24.20;58.40;;;;;;10217450;28;94351;-56
2023/08/15 17:16:27;;;;;;;;;;;24.20;58.20;;;;;;10213762;28;96092;-55
2023/08/15 17:21:29;;;;;;;;;;;24.20;58.10;;;;;;10196186;28;94557;-57
2023/08/15 17:26:31;;;;;;;;;;;24.20;57.60;;;;;;10219967;28;94084;-55
2023/08/15 17:31:33;;;;;;;;;;;24.30;57.20;;;;;;10203273;28;93276;-55
2023/08/15 17:36:35;;;;;;;;;;;24.30;56.60;;;;;;10207929;28;94332;-56
2023/08/15 17:41:36;;;;;;;;;;;24.30;56.40;;;;;;10213811;28;94545;-56
2023/08/15 17:46:42;;;;;;;;;;;24.40;56.40;;;;;;10206174;28;93347;-56
2023/08/15 17:51:43;;;;;;;;;;;24.40;56.20;;;;;;10201774;28;93803;-56
2023/08/15 17:56:45;;;;;;;;;;;24.50;56.10;;;;;;10184913;28;94559;-55
2023/08/15 18:01:47;;;;;;;;;;;24.50;56.00;;;;;;10205290;28;94679;-48
2023/08/15 18:06:49;;;;;;;;;;;24.50;56.00;;;;;;10213803;28;97373;-45
2023/08/15 18:11:51;;;;;;;;;;;24.40;55.80;;;;;;10200961;28;95582;-47
2023/08/15 18:16:53;;;;;;;;;;;24.30;55.90;;;;;;10211462;28;94577;-47
2023/08/15 18:21:58;;;;;;;;;;;24.30;56.20;;;;;;10209516;28;94760;-47
2023/08/15 18:27:01;;;;;;;;;;;24.20;56.30;;;;;;10185475;28;93766;-49
2023/08/15 18:32:03;;;;;;;;;;;24.20;56.30;;;;;;10202812;28;93642;-45
2023/08/15 18:37:05;;;;;;;;;;;24.10;56.40;;;;;;10191522;28;94495;-47
2023/08/15 18:42:07;;;;;;;;;;;24.10;56.50;;;;;;10213895;28;93732;-49
2023/08/15 18:47:09;;;;;;;;;;;24.10;56.70;;;;;;10205690;28;94117;-48
2023/08/15 18:52:11;;;;;;;;;;;24.00;56.90;;;;;;10181322;28;94104;-51
2023/08/15 18:57:13;;;;;;;;;;;24.00;57.10;;;;;;10199643;28;96198;-50
2023/08/15 19:02:15;;;;;;;;;;;24.00;57.40;;;;;;10200407;28;93810;-49
2023/08/15 19:07:16;;;;;;;;;;;23.90;57.70;;;;;;10195686;28;93471;-47
2023/08/15 19:12:18;;;;;;;;;;;23.90;58.00;;;;;;10196486;28;94572;-50
2023/08/15 19:17:21;;;;;;;;;;;23.90;58.20;;;;;;10205325;28;94007;-48
2023/08/15 19:22:23;;;;;;;;;;;23.80;58.60;;;;;;10183570;28;94476;-48
2023/08/15 19:27:25;;;;;;;;;;;23.80;59.00;;;;;;10203877;28;94813;-46
2023/08/15 19:32:26;;;;;;;;;;;23.80;59.20;;;;;;10201885;28;93702;-47
2023/08/15 19:37:28;;;;;;;;;;;23.80;59.20;;;;;;10201179;28;93548;-52
2023/08/15 19:42:40;;;;;;;;;;;23.80;59.30;;;;;;10182074;28;93200;-49
2023/08/15 19:47:42;;;;;;;;;;;23.80;59.60;;;;;;10195911;28;96133;-49
2023/08/15 19:52:44;;;;;;;;;;;23.80;59.60;;;;;;10205677;28;94035;-47
2023/08/15 19:57:45;;;;;;;;;;;23.80;59.70;;;;;;10202186;28;93431;-47
2023/08/15 20:02:47;;;;;;;;;;;23.80;59.90;;;;;;10200250;28;95086;-45
2023/08/15 20:07:49;;;;;;;;;;;23.80;60.00;;;;;;10204314;28;94470;-46
2023/08/15 20:12:52;;;;;;;;;;;23.80;60.00;;;;;;10199423;28;94080;-52
2023/08/15 20:17:56;;;;;;;;;;;23.80;60.20;;;;;;10198348;28;94464;-46
2023/08/15 20:22:58;;;;;;;;;;;23.80;60.20;;;;;;10199709;28;92684;-45
2023/08/15 20:28:01;;;;;;;;;;;23.80;60.30;;;;;;10208192;28;93965;-45
2023/08/15 20:33:03;;;;;;;;;;;23.80;60.40;;;;;;10189852;28;94013;-46
2023/08/15 20:38:05;;;;;;;;;;;23.80;60.60;;;;;;10202891;28;95940;-45
2023/08/15 20:43:07;;;;;;;;;;;23.80;60.60;;;;;;10206325;28;94667;-46
2023/08/15 20:48:10;;;;;;;;;;;23.80;60.80;;;;;;10187586;28;93753;-49
2023/08/15 20:53:12;;;;;;;;;;;23.80;60.80;;;;;;10207662;28;94649;-47
2023/08/15 20:58:13;;;;;;;;;;;23.70;60.80;;;;;;10205508;28;94139;-49
2023/08/15 21:03:15;;;;;;;;;;;23.70;60.90;;;;;;10203086;28;94443;-47
2023/08/15 21:08:17;;;;;;;;;;;23.70;61.00;;;;;;10187202;28;94557;-48
2023/08/15 21:13:19;;;;;;;;;;;23.60;61.00;;;;;;10205875;28;93654;-53
2023/08/15 21:18:21;;;;;;;;;;;23.70;61.30;;;;;;10204468;28;94257;-51
2023/08/15 21:23:22;;;;;;;;;;;23.60;61.30;;;;;;10194956;28;92983;-44
2023/08/15 21:28:24;;;;;;;;;;;23.60;61.40;;;;;;10198423;28;96736;-49
2023/08/15 21:33:26;;;;;;;;;;;23.60;61.50;;;;;;10201214;28;94547;-48
2023/08/15 21:38:27;;;;;;;;;;;23.60;61.60;;;;;;10199530;28;94526;-46
2023/08/15 21:43:29;;;;;;;;;;;23.60;61.70;;;;;;10200258;28;93415;-48
2023/08/15 21:48:31;;;;;;;;;;;23.50;61.60;;;;;;10199771;28;93879;-46
2023/08/15 21:53:33;;;;;;;;;;;23.50;61.70;;;;;;10196718;28;94366;-49
2023/08/15 21:58:35;;;;;;;;;;;23.50;61.80;;;;;;10182429;28;94383;-51
2023/08/15 22:03:36;;;;;;;;;;;23.50;61.80;;;;;;10197375;28;93681;-50
2023/08/15 22:08:41;;;;;;;;;;;23.50;61.90;;;;;;10183137;28;93702;-47
2023/08/15 22:13:43;;;;;;;;;;;23.50;61.90;;;;;;10199829;28;94582;-46
2023/08/15 22:18:44;;;;;;;;;;;23.40;61.80;;;;;;10200127;28;97058;-67
2023/08/15 22:23:46;;;;;;;;;;;23.50;62.00;;;;;;10200963;28;94515;-52
2023/08/15 22:28:48;;;;;;;;;;;23.50;61.90;;;;;;10193730;28;93581;-48
2023/08/15 22:33:50;;;;;;;;;;;23.50;61.90;;;;;;10203871;28;94481;-51
2023/08/15 22:38:51;;;;;;;;;;;23.50;61.90;;;;;;10202804;28;95604;-48
2023/08/15 22:43:53;;;;;;;;;;;23.50;61.90;;;;;;10203419;28;93219;-50
2023/08/15 22:48:55;;;;;;;;;;;23.40;61.80;;;;;;10199579;28;93267;-47
2023/08/15 22:53:56;;;;;;;;;;;23.50;61.90;;;;;;10203005;28;93875;-47
2023/08/15 22:58:58;;;;;;;;;;;23.50;61.80;;;;;;10203025;28;94417;-47
2023/08/15 23:04:01;;;;;;;;;;;23.50;61.90;;;;;;10202397;28;93552;-46
2023/08/15 23:09:02;;;;;;;;;;;23.40;61.80;;;;;;10179778;28;95832;-49
2023/08/15 23:14:04;;;;;;;;;;;23.40;61.90;;;;;;10199910;28;93492;-52
2023/08/15 23:19:06;;;;;;;;;;;23.50;61.90;;;;;;10185009;28;93479;-48
2023/08/15 23:24:07;;;;;;;;;;;23.50;61.90;;;;;;10201438;28;94976;-46
2023/08/15 23:29:10;;;;;;;;;;;23.50;61.80;;;;;;10198964;28;94215;-50
2023/08/15 23:34:11;;;;;;;;;;;23.50;61.80;;;;;;10184338;28;94673;-48
2023/08/15 23:39:15;;;;;;;;;;;23.50;61.80;;;;;;10199957;28;94575;-51
2023/08/15 23:44:20;;;;;;;;;;;23.50;61.80;;;;;;10201105;28;92718;-48
2023/08/15 23:49:21;;;;;;;;;;;23.50;61.80;;;;;;10200737;28;94430;-49
2023/08/15 23:54:24;;;;;;;;;;;23.40;61.80;;;;;;10182829;28;94397;-47
2023/08/15 23:59:25;;;;;;;;;;;23.50;61.80;;;;;;10197586;28;95316;-48
